sensor_id;sensor_type;location;lat;lon;timestamp;pressure;altitude;pressure_sealevel;temperature;humidity
61554;BME280;47425;51.976;5.326;2022-11-11T09:02:35;102888.13;;;16.47;58.19
61554;BME280;47425;51.976;5.326;2022-11-11T09:05:20;102882.22;;;16.96;57.18
61554;BME280;47425;51.976;5.326;2022-11-11T09:08:05;102885.78;;;17.48;55.90
61554;BME280;47425;51.976;5.326;2022-11-11T09:10:50;102887.75;;;17.88;54.64
61554;BME280;47425;51.976;5.326;2022-11-11T09:13:35;102898.72;;;18.18;54.08
61554;BME280;47425;51.976;5.326;2022-11-11T09:16:19;102900.88;;;18.43;53.35
61554;BME280;47425;51.976;5.326;2022-11-11T09:19:03;102905.84;;;18.60;53.07
61554;BME280;47425;51.976;5.326;2022-11-11T09:21:49;102901.13;;;18.73;52.20
61554;BME280;47425;51.976;5.326;2022-11-11T09:24:33;102900.81;;;18.88;52.02
61554;BME280;47425;51.976;5.326;2022-11-11T09:27:17;102905.91;;;18.99;51.42
61554;BME280;47425;51.976;5.326;2022-11-11T09:30:03;102903.97;;;19.06;51.58
61554;BME280;47425;51.976;5.326;2022-11-11T09:32:47;102897.50;;;19.18;51.12
61554;BME280;47425;51.976;5.326;2022-11-11T09:35:31;102903.38;;;19.31;51.33
61554;BME280;47425;51.976;5.326;2022-11-11T09:38:16;102903.91;;;19.45;50.72
61554;BME280;47425;51.976;5.326;2022-11-11T09:43:55;102915.56;;;19.75;50.43
61554;BME280;47425;51.976;5.326;2022-11-11T09:46:50;102912.50;;;19.91;50.17
61554;BME280;47425;51.976;5.326;2022-11-11T09:52:48;102913.97;;;20.34;50.01
61554;BME280;47425;51.976;5.326;2022-11-11T09:55:41;102918.38;;;20.35;49.71
61554;BME280;47425;51.976;5.326;2022-11-11T09:58:33;102929.69;;;20.43;49.52
61554;BME280;47425;51.976;5.326;2022-11-11T10:01:26;102928.59;;;20.51;49.18
61554;BME280;47425;51.976;5.326;2022-11-11T10:04:22;102922.22;;;20.56;49.01
61554;BME280;47425;51.976;5.326;2022-11-11T10:07:27;102922.97;;;20.61;49.49
61554;BME280;47425;51.976;5.326;2022-11-11T10:13:35;102933.28;;;20.74;48.69
61554;BME280;47425;51.976;5.326;2022-11-11T10:16:31;102918.91;;;20.79;48.85
61554;BME280;47425;51.976;5.326;2022-11-11T10:19:30;102923.94;;;20.89;48.75
61554;BME280;47425;51.976;5.326;2022-11-11T10:22:22;102928.19;;;20.94;48.66
61554;BME280;47425;51.976;5.326;2022-11-11T10:27:58;102933.97;;;21.09;48.72
61554;BME280;47425;51.976;5.326;2022-11-11T10:30:42;102930.22;;;21.15;48.92
61554;BME280;47425;51.976;5.326;2022-11-11T10:33:31;102942.53;;;21.19;48.87
61554;BME280;47425;51.976;5.326;2022-11-11T10:36:19;102948.72;;;21.21;48.35
61554;BME280;47425;51.976;5.326;2022-11-11T10:39:04;102938.91;;;21.21;48.63
61554;BME280;47425;51.976;5.326;2022-11-11T10:41:49;102938.84;;;21.23;48.60
61554;BME280;47425;51.976;5.326;2022-11-11T10:44:34;102950.41;;;21.23;48.34
61554;BME280;47425;51.976;5.326;2022-11-11T10:47:45;102950.47;;;21.22;48.58
61554;BME280;47425;51.976;5.326;2022-11-11T10:50:40;102949.63;;;21.20;48.36
61554;BME280;47425;51.976;5.326;2022-11-11T10:53:42;102946.13;;;21.18;48.23
61554;BME280;47425;51.976;5.326;2022-11-11T11:00:07;102952.38;;;21.17;48.78
61554;BME280;47425;51.976;5.326;2022-11-11T11:06:13;102940.03;;;21.14;48.27
61554;BME280;47425;51.976;5.326;2022-11-11T11:15:05;102931.38;;;21.07;48.37
61554;BME280;47425;51.976;5.326;2022-11-11T11:18:12;102927.91;;;21.04;48.31
61554;BME280;47425;51.976;5.326;2022-11-11T11:21:02;102929.78;;;21.02;48.60
61554;BME280;47425;51.976;5.326;2022-11-11T11:23:47;102930.44;;;21.08;48.37
61554;BME280;47425;51.976;5.326;2022-11-11T11:26:46;102933.13;;;21.08;49.46
61554;BME280;47425;51.976;5.326;2022-11-11T11:32:30;102931.88;;;21.19;50.40
61554;BME280;47425;51.976;5.326;2022-11-11T11:38:18;102925.41;;;21.27;50.46
61554;BME280;47425;51.976;5.326;2022-11-11T11:41:02;102926.19;;;21.29;50.63
61554;BME280;47425;51.976;5.326;2022-11-11T11:43:46;102925.34;;;21.29;49.93
61554;BME280;47425;51.976;5.326;2022-11-11T11:46:38;102926.38;;;21.25;50.46
61554;BME280;47425;51.976;5.326;2022-11-11T11:49:39;102923.69;;;21.25;49.83
61554;BME280;47425;51.976;5.326;2022-11-11T11:52:51;102917.53;;;21.23;50.08
61554;BME280;47425;51.976;5.326;2022-11-11T11:55:50;102922.13;;;21.18;49.54
61554;BME280;47425;51.976;5.326;2022-11-11T12:11:21;102909.28;;;21.04;49.76
61554;BME280;47425;51.976;5.326;2022-11-11T12:20:26;102918.16;;;21.03;49.71
61554;BME280;47425;51.976;5.326;2022-11-11T12:29:31;102901.44;;;20.99;49.44
61554;BME280;47425;51.976;5.326;2022-11-11T12:32:59;102893.44;;;20.99;49.86
61554;BME280;47425;51.976;5.326;2022-11-11T12:38:49;102889.94;;;20.97;49.71
61554;BME280;47425;51.976;5.326;2022-11-11T12:42:08;102889.09;;;20.97;49.46
61554;BME280;47425;51.976;5.326;2022-11-11T12:54:09;102883.84;;;20.93;49.77
61554;BME280;47425;51.976;5.326;2022-11-11T12:57:14;102887.44;;;20.92;49.54
61554;BME280;47425;51.976;5.326;2022-11-11T13:03:21;102887.50;;;20.91;49.44
61554;BME280;47425;51.976;5.326;2022-11-11T13:10:07;102881.22;;;20.92;49.66
61554;BME280;47425;51.976;5.326;2022-11-11T13:15:55;102883.16;;;20.87;49.27
61554;BME280;47425;51.976;5.326;2022-11-11T13:18:55;102893.84;;;20.85;49.82
61554;BME280;47425;51.976;5.326;2022-11-11T13:21:52;102877.88;;;20.85;49.67
61554;BME280;47425;51.976;5.326;2022-11-11T13:24:38;102884.09;;;20.86;49.49
61554;BME280;47425;51.976;5.326;2022-11-11T13:27:27;102877.88;;;20.85;49.65
61554;BME280;47425;51.976;5.326;2022-11-11T13:33:38;102872.59;;;20.84;49.84
61554;BME280;47425;51.976;5.326;2022-11-11T13:36:26;102878.78;;;20.86;49.62
61554;BME280;47425;51.976;5.326;2022-11-11T13:39:47;102884.00;;;20.89;49.44
61554;BME280;47425;51.976;5.326;2022-11-11T13:42:39;102877.88;;;20.85;49.88
61554;BME280;47425;51.976;5.326;2022-11-11T13:45:28;102881.50;;;20.84;49.59
61554;BME280;47425;51.976;5.326;2022-11-11T13:48:23;102876.22;;;20.81;49.37
61554;BME280;47425;51.976;5.326;2022-11-11T13:51:19;102890.47;;;20.80;49.38
61554;BME280;47425;51.976;5.326;2022-11-11T13:57:17;102877.13;;;20.82;49.56
61554;BME280;47425;51.976;5.326;2022-11-11T14:00:04;102889.47;;;20.84;49.79
61554;BME280;47425;51.976;5.326;2022-11-11T14:08:57;102883.31;;;20.82;49.35
61554;BME280;47425;51.976;5.326;2022-11-11T14:11:41;102870.00;;;20.82;49.60
61554;BME280;47425;51.976;5.326;2022-11-11T14:17:12;102871.88;;;20.78;49.44
61554;BME280;47425;51.976;5.326;2022-11-11T14:19:57;102878.00;;;20.82;49.45
61554;BME280;47425;51.976;5.326;2022-11-11T14:22:41;102870.97;;;20.79;49.24
61554;BME280;47425;51.976;5.326;2022-11-11T14:25:26;102878.94;;;20.79;49.36
61554;BME280;47425;51.976;5.326;2022-11-11T14:28:33;102871.00;;;20.78;49.56
61554;BME280;47425;51.976;5.326;2022-11-11T14:34:21;102871.13;;;20.73;49.77
61554;BME280;47425;51.976;5.326;2022-11-11T14:37:22;102872.09;;;20.72;49.95
61554;BME280;47425;51.976;5.326;2022-11-11T14:40:23;102870.34;;;20.71;49.63
61554;BME280;47425;51.976;5.326;2022-11-11T14:43:43;102865.16;;;20.65;50.06
61554;BME280;47425;51.976;5.326;2022-11-11T14:46:27;102878.50;;;20.63;49.83
61554;BME280;47425;51.976;5.326;2022-11-11T14:55:30;102867.34;;;20.52;49.77
61554;BME280;47425;51.976;5.326;2022-11-11T14:58:19;102869.16;;;20.50;50.44
61554;BME280;47425;51.976;5.326;2022-11-11T15:01:13;102868.34;;;20.48;49.89
61554;BME280;47425;51.976;5.326;2022-11-11T15:04:02;102872.88;;;20.44;50.06
61554;BME280;47425;51.976;5.326;2022-11-11T15:06:52;102869.47;;;20.39;50.35
61554;BME280;47425;51.976;5.326;2022-11-11T15:12:45;102875.75;;;20.37;50.59
61554;BME280;47425;51.976;5.326;2022-11-11T15:18:45;102876.72;;;20.34;50.44
61554;BME280;47425;51.976;5.326;2022-11-11T15:21:41;102878.63;;;20.31;50.45
61554;BME280;47425;51.976;5.326;2022-11-11T15:27:43;102877.72;;;20.30;50.12
61554;BME280;47425;51.976;5.326;2022-11-11T15:33:51;102885.91;;;20.24;50.45
61554;BME280;47425;51.976;5.326;2022-11-11T15:36:58;102885.09;;;20.20;50.23
61554;BME280;47425;51.976;5.326;2022-11-11T15:39:45;102890.44;;;20.20;50.59
61554;BME280;47425;51.976;5.326;2022-11-11T15:42:33;102887.81;;;20.19;50.62
61554;BME280;47425;51.976;5.326;2022-11-11T15:45:23;102893.00;;;20.23;50.17
61554;BME280;47425;51.976;5.326;2022-11-11T15:48:20;102896.53;;;20.24;50.14
61554;BME280;47425;51.976;5.326;2022-11-11T15:54:19;102890.34;;;20.23;50.04
61554;BME280;47425;51.976;5.326;2022-11-11T16:03:17;102895.59;;;20.26;50.46
61554;BME280;47425;51.976;5.326;2022-11-11T16:06:08;102903.47;;;20.29;49.94
61554;BME280;47425;51.976;5.326;2022-11-11T16:08:54;102904.28;;;20.33;49.76
61554;BME280;47425;51.976;5.326;2022-11-11T16:11:41;102903.31;;;20.34;50.22
61554;BME280;47425;51.976;5.326;2022-11-11T16:14:41;102903.44;;;20.31;49.82
61554;BME280;47425;51.976;5.326;2022-11-11T16:17:33;102905.94;;;20.36;50.06
61554;BME280;47425;51.976;5.326;2022-11-11T16:20:27;102904.28;;;20.33;50.13
61554;BME280;47425;51.976;5.326;2022-11-11T16:23:17;102906.84;;;20.36;50.20
61554;BME280;47425;51.976;5.326;2022-11-11T16:26:02;102910.31;;;20.38;50.01
61554;BME280;47425;51.976;5.326;2022-11-11T16:28:54;102915.69;;;20.37;49.91
61554;BME280;47425;51.976;5.326;2022-11-11T16:31:41;102917.47;;;20.36;50.28
61554;BME280;47425;51.976;5.326;2022-11-11T16:37:13;102922.81;;;20.36;50.13
61554;BME280;47425;51.976;5.326;2022-11-11T16:43:16;102922.84;;;20.35;50.61
61554;BME280;47425;51.976;5.326;2022-11-11T16:46:03;102922.81;;;20.36;50.10
61554;BME280;47425;51.976;5.326;2022-11-11T16:48:50;102921.91;;;20.36;50.45
61554;BME280;47425;51.976;5.326;2022-11-11T16:51:43;102930.00;;;20.33;50.12
61554;BME280;47425;51.976;5.326;2022-11-11T16:54:31;102930.78;;;20.36;50.59
61554;BME280;47425;51.976;5.326;2022-11-11T16:57:21;102940.53;;;20.36;50.20
61554;BME280;47425;51.976;5.326;2022-11-11T17:00:12;102936.19;;;20.33;50.61
61554;BME280;47425;51.976;5.326;2022-11-11T17:08:45;102929.94;;;20.34;50.31
61554;BME280;47425;51.976;5.326;2022-11-11T17:14:26;102932.66;;;20.33;50.56
61554;BME280;47425;51.976;5.326;2022-11-11T17:17:12;102938.81;;;20.35;50.48
61554;BME280;47425;51.976;5.326;2022-11-11T17:19:59;102944.19;;;20.33;50.67
61554;BME280;47425;51.976;5.326;2022-11-11T17:25:31;102932.75;;;20.29;50.50
61554;BME280;47425;51.976;5.326;2022-11-11T17:28:16;102939.78;;;20.32;50.68
61554;BME280;47425;51.976;5.326;2022-11-11T17:31:06;102938.13;;;20.28;50.67
61554;BME280;47425;51.976;5.326;2022-11-11T17:33:51;102935.41;;;20.29;50.75
61554;BME280;47425;51.976;5.326;2022-11-11T17:36:35;102929.19;;;20.29;50.61
61554;BME280;47425;51.976;5.326;2022-11-11T17:39:19;102936.25;;;20.30;50.10
61554;BME280;47425;51.976;5.326;2022-11-11T17:42:03;102929.19;;;20.29;50.08
61554;BME280;47425;51.976;5.326;2022-11-11T17:44:47;102931.84;;;20.31;50.27
61554;BME280;47425;51.976;5.326;2022-11-11T17:47:32;102937.00;;;20.35;50.31
61554;BME280;47425;51.976;5.326;2022-11-11T17:50:16;102927.16;;;20.39;50.70
61554;BME280;47425;51.976;5.326;2022-11-11T17:53:00;102934.09;;;20.44;50.55
61554;BME280;47425;51.976;5.326;2022-11-11T17:55:46;102935.63;;;20.53;51.19
61554;BME280;47425;51.976;5.326;2022-11-11T17:58:30;102930.91;;;20.63;51.20
61554;BME280;47425;51.976;5.326;2022-11-11T18:01:14;102932.56;;;20.67;50.60
61554;BME280;47425;51.976;5.326;2022-11-11T18:03:59;102943.03;;;20.73;50.40
61554;BME280;47425;51.976;5.326;2022-11-11T18:06:43;102942.91;;;20.78;50.64
61554;BME280;47425;51.976;5.326;2022-11-11T18:09:27;102941.03;;;20.82;50.71
61554;BME280;47425;51.976;5.326;2022-11-11T18:12:11;102935.50;;;20.88;50.83
61554;BME280;47425;51.976;5.326;2022-11-11T18:14:56;102935.28;;;20.95;50.63
61554;BME280;47425;51.976;5.326;2022-11-11T18:17:40;102936.13;;;20.98;50.62
61554;BME280;47425;51.976;5.326;2022-11-11T18:20:24;102931.66;;;20.98;51.23
61554;BME280;47425;51.976;5.326;2022-11-11T18:23:09;102934.25;;;21.00;51.23
61554;BME280;47425;51.976;5.326;2022-11-11T18:25:53;102931.66;;;20.98;51.36
61554;BME280;47425;51.976;5.326;2022-11-11T18:28:38;102931.59;;;21.00;51.08
61554;BME280;47425;51.976;5.326;2022-11-11T18:31:22;102929.72;;;21.03;51.14
61554;BME280;47425;51.976;5.326;2022-11-11T18:34:06;102932.34;;;21.05;51.25
61554;BME280;47425;51.976;5.326;2022-11-11T18:36:51;102935.03;;;21.03;50.73
61554;BME280;47425;51.976;5.326;2022-11-11T18:39:36;102934.94;;;21.06;50.52
61554;BME280;47425;51.976;5.326;2022-11-11T18:42:20;102935.72;;;21.10;50.68
61554;BME280;47425;51.976;5.326;2022-11-11T18:45:05;102936.59;;;21.10;50.48
61554;BME280;47425;51.976;5.326;2022-11-11T18:47:49;102931.25;;;21.10;50.36
61554;BME280;47425;51.976;5.326;2022-11-11T18:50:33;102936.59;;;21.10;49.72
61554;BME280;47425;51.976;5.326;2022-11-11T18:53:17;102933.91;;;21.10;49.82
61554;BME280;47425;51.976;5.326;2022-11-11T18:56:09;102934.94;;;21.06;50.22
61554;BME280;47425;51.976;5.326;2022-11-11T18:58:57;102924.28;;;21.06;50.17
61554;BME280;47425;51.976;5.326;2022-11-11T19:01:42;102929.47;;;21.11;49.73
61554;BME280;47425;51.976;5.326;2022-11-11T19:04:26;102936.69;;;21.07;48.62
61554;BME280;47425;51.976;5.326;2022-11-11T19:07:10;102928.03;;;21.01;48.41
61554;BME280;47425;51.976;5.326;2022-11-11T19:09:54;102937.88;;;20.97;48.33
61554;BME280;47425;51.976;5.326;2022-11-11T19:12:39;102927.34;;;20.94;48.59
61554;BME280;47425;51.976;5.326;2022-11-11T19:15:24;102929.16;;;20.92;48.57
61554;BME280;47425;51.976;5.326;2022-11-11T19:18:07;102930.88;;;20.94;48.09
61554;BME280;47425;51.976;5.326;2022-11-11T19:20:51;102922.00;;;20.94;48.37
61554;BME280;47425;51.976;5.326;2022-11-11T19:23:37;102929.16;;;20.92;48.50
61554;BME280;47425;51.976;5.326;2022-11-11T19:26:22;102923.03;;;20.90;48.66
61554;BME280;47425;51.976;5.326;2022-11-11T19:29:08;102928.34;;;20.90;48.22
61554;BME280;47425;51.976;5.326;2022-11-11T19:31:53;102926.72;;;20.86;48.46
61554;BME280;47425;51.976;5.326;2022-11-11T19:34:37;102933.91;;;20.82;48.34
61554;BME280;47425;51.976;5.326;2022-11-11T19:37:22;102930.47;;;20.78;48.63
61554;BME280;47425;51.976;5.326;2022-11-11T19:40:07;102940.34;;;20.75;48.68
61554;BME280;47425;51.976;5.326;2022-11-11T19:42:51;102936.78;;;20.74;48.67
61554;BME280;47425;51.976;5.326;2022-11-11T19:45:35;102937.72;;;20.73;48.63
61554;BME280;47425;51.976;5.326;2022-11-11T19:48:19;102947.50;;;20.73;48.83
61554;BME280;47425;51.976;5.326;2022-11-11T19:51:05;102951.13;;;20.70;48.39
61554;BME280;47425;51.976;5.326;2022-11-11T19:53:50;102954.69;;;20.71;48.62
61554;BME280;47425;51.976;5.326;2022-11-11T19:56:34;102956.50;;;20.67;48.73
61554;BME280;47425;51.976;5.326;2022-11-11T19:59:18;102958.28;;;20.67;48.87
61554;BME280;47425;51.976;5.326;2022-11-11T20:02:04;102961.00;;;20.65;48.30
61554;BME280;47425;51.976;5.326;2022-11-11T20:04:48;102967.25;;;20.64;48.46
61554;BME280;47425;51.976;5.326;2022-11-11T20:07:32;102981.47;;;20.63;48.89
61554;BME280;47425;51.976;5.326;2022-11-11T20:10:16;102979.78;;;20.60;48.52
61554;BME280;47425;51.976;5.326;2022-11-11T20:13:01;102978.94;;;20.58;48.67
61554;BME280;47425;51.976;5.326;2022-11-11T20:15:45;102988.78;;;20.56;48.35
61554;BME280;47425;51.976;5.326;2022-11-11T20:18:30;102987.03;;;20.55;48.88
61554;BME280;47425;51.976;5.326;2022-11-11T20:21:15;102981.78;;;20.52;48.49
61554;BME280;47425;51.976;5.326;2022-11-11T20:23:58;102987.13;;;20.52;48.84
61554;BME280;47425;51.976;5.326;2022-11-11T20:26:43;102984.50;;;20.51;48.88
61554;BME280;47425;51.976;5.326;2022-11-11T20:29:27;102988.97;;;20.49;48.65
61554;BME280;47425;51.976;5.326;2022-11-11T20:32:12;102997.00;;;20.47;48.40
61554;BME280;47425;51.976;5.326;2022-11-11T20:34:56;102990.94;;;20.42;48.77
61554;BME280;47425;51.976;5.326;2022-11-11T20:37:41;102997.13;;;20.42;48.95
61554;BME280;47425;51.976;5.326;2022-11-11T20:40:25;103001.53;;;20.43;48.61
61554;BME280;47425;51.976;5.326;2022-11-11T20:43:09;103000.69;;;20.43;48.90
61554;BME280;47425;51.976;5.326;2022-11-11T20:45:54;103000.72;;;20.41;48.56
61554;BME280;47425;51.976;5.326;2022-11-11T20:48:39;103004.28;;;20.40;48.75
61554;BME280;47425;51.976;5.326;2022-11-11T20:51:24;103006.94;;;20.40;48.99
61554;BME280;47425;51.976;5.326;2022-11-11T20:54:09;103018.47;;;20.41;49.08
61554;BME280;47425;51.976;5.326;2022-11-11T20:56:53;103022.00;;;20.41;48.80
61554;BME280;47425;51.976;5.326;2022-11-11T20:59:37;103017.66;;;20.39;48.89
61554;BME280;47425;51.976;5.326;2022-11-11T21:02:21;103019.34;;;20.41;48.83
61554;BME280;47425;51.976;5.326;2022-11-11T21:05:05;103013.13;;;20.41;48.64
61554;BME280;47425;51.976;5.326;2022-11-11T21:07:49;103020.22;;;20.42;48.91
61554;BME280;47425;51.976;5.326;2022-11-11T21:10:34;103021.06;;;20.42;49.21
61554;BME280;47425;51.976;5.326;2022-11-11T21:13:18;103023.75;;;20.42;48.70
61554;BME280;47425;51.976;5.326;2022-11-11T21:16:19;103028.19;;;20.42;48.61
61554;BME280;47425;51.976;5.326;2022-11-11T21:19:03;103022.88;;;20.42;48.89
61554;BME280;47425;51.976;5.326;2022-11-11T21:21:47;103024.59;;;20.44;48.61
61554;BME280;47425;51.976;5.326;2022-11-11T21:24:32;103025.50;;;20.43;48.99
61554;BME280;47425;51.976;5.326;2022-11-11T21:27:22;103029.03;;;20.44;48.60
61554;BME280;47425;51.976;5.326;2022-11-11T21:30:07;103028.16;;;20.43;49.06
61554;BME280;47425;51.976;5.326;2022-11-11T21:32:51;103022.81;;;20.43;48.94
61554;BME280;47425;51.976;5.326;2022-11-11T21:35:35;103023.72;;;20.44;48.67
61554;BME280;47425;51.976;5.326;2022-11-11T21:38:20;103030.75;;;20.45;48.53
61554;BME280;47425;51.976;5.326;2022-11-11T21:41:09;103026.41;;;20.42;48.99
61554;BME280;47425;51.976;5.326;2022-11-11T21:43:54;103033.47;;;20.43;48.77
61554;BME280;47425;51.976;5.326;2022-11-11T21:46:38;103022.91;;;20.40;48.72
61554;BME280;47425;51.976;5.326;2022-11-11T21:49:22;103031.66;;;20.45;48.65
61554;BME280;47425;51.976;5.326;2022-11-11T21:52:06;103029.06;;;20.42;48.94
61554;BME280;47425;51.976;5.326;2022-11-11T21:54:51;103017.66;;;20.39;49.15
61554;BME280;47425;51.976;5.326;2022-11-11T21:57:35;103022.25;;;20.32;48.84
61554;BME280;47425;51.976;5.326;2022-11-11T22:00:19;103024.00;;;20.33;48.86
61554;BME280;47425;51.976;5.326;2022-11-11T22:03:04;103028.50;;;20.31;49.15
61554;BME280;47425;51.976;5.326;2022-11-11T22:05:48;103017.88;;;20.29;48.84
61554;BME280;47425;51.976;5.326;2022-11-11T22:08:33;103022.38;;;20.27;49.10
61554;BME280;47425;51.976;5.326;2022-11-11T22:11:20;103010.91;;;20.25;48.72
61554;BME280;47425;51.976;5.326;2022-11-11T22:14:04;103014.44;;;20.26;49.23
61554;BME280;47425;51.976;5.326;2022-11-11T22:16:48;103014.47;;;20.24;48.68
61554;BME280;47425;51.976;5.326;2022-11-11T22:19:33;103009.16;;;20.24;49.02
61554;BME280;47425;51.976;5.326;2022-11-11T22:22:17;103012.72;;;20.23;48.61
61554;BME280;47425;51.976;5.326;2022-11-11T22:25:01;103020.69;;;20.23;49.09
61554;BME280;47425;51.976;5.326;2022-11-11T22:27:45;103013.63;;;20.22;49.19
